Terminal Aerodrome Forecast
Issued by NWS

Home | Current Version | Previous Version | Text Only | Print | Product List | Glossary On
Versions: 1 2 3 4 5 6 7 8 9 10 11 12 13 14 15 16 17 18
000
FTUS43 KICT 242300
TAFRSL
TAF
KRSL 242320Z 2500/2524 33012KT P6SM FEW200
     FM250300 27009KT P6SM FEW200
     FM250900 20011KT P6SM FEW200
     FM251500 21017G30KT P6SM SCT250=

USA.gov is the U.S. government's official web portal to all federal, state and local government web resources and services.